aviador You're here:

EIKN Decoded Metar

CONNAUGHT in IRELAND
Report Time2018-06-18 15:00:00
UTC Time2018-06-18 15:27:39
Flight Rules mvfr MVFR
Wind270° at 14 kt
W.Decomp.*RWY 27: 13.9 kt HW 1.5 kt RCW
W.Rank270° ranks 5
Current wind is above 270° avg. (10.7)
Visibility9999 m
Phenomena:N/A
Clouds:Broken 011 Hf
Broken 018 Hf
Expected CloudBase > 400 ft AGL from Temp-Dew spread
Ceiling1,100 ft
Temp12°C (ISA -3)
Dew Point11°C (94% RH)
AAT7.3°C
QNH1015 hPa
Density Alt10 ft
Elevation210 ft
Report Wrong Elevation
Raw Report
METAR EIKN 181500Z 27014KT 9999 BKN011 BKN018 12/11 Q1015 NOSIG=

Extra information for EIKN:More info

Metar Taf Metar & Taf Last 4 Metars F.Rules Stats Wind Profile Meteogram Temp Stats Airport Information Weather charts Add Link Nearby VenuesMetar ALERT Operation Metar Decoded Social comments